• Join FlightAware (Why Join?)
  • Login
  • US Flag 
02:13AM EDT


 

Airport Tracker/Info


-or-


 

Live Flight TrackerFlight Track Log ✈ EJA831 ✈ 27-Dec-2013 ✈ KLWB - KCLE

Flight Track Log - Related Links

Times and Time Zones

All times are in EST time to prevent confusion due to time zone crossing. See the EJA831 flight status page for this flight to view local times or setup timezone preferences in your user account.

Time Position Orientation Groundspeed Altitude Reporting Facility
EST Latitude Longitude Course Direction KTS MPH feet Rate Location/Type
08:04PM 37.8897 -80.3711 353° North 246 283 4,600  Level Indianapolis Center
08:05PM 37.9681 -80.3739 358° North 254 292 9,600 4,680 Climbing Indianapolis Center
08:06PM 38.0375 -80.3911 349° North 250 288 14,300 3,960 Climbing Indianapolis Center
08:07PM 38.1117 -80.4064 351° North 264 304 17,800 3,360 Climbing Indianapolis Center
08:08PM 38.3606 -80.5960 322° Northwest  Level Estimated
08:08PM 38.1931 -80.4236 351° North 291 335 21,300  Level Indianapolis Center
08:09PM 38.4443 -80.6291 353° North  Level Estimated
08:09PM 38.2692 -80.4450 348° North 288 331 23,900  Level Washington Center
08:10PM 38.3497 -80.4633 350° North 293 337 26,900 1,500 Climbing Washington Center
08:11PM 38.4408 -80.4800 352° North 306 352 27,000  Climbing Washington Center
08:12PM 38.5528 -80.4992 352° North 366 421 27,000  Level Indianapolis Center
08:13PM 38.6539 -80.5211 350° North 366 421 27,000  Level Indianapolis Center
08:14PM 38.7739 -80.5467 351° North 368 423 27,000  Level Indianapolis Center
08:15PM 38.8742 -80.5675 351° North 366 421 27,000  Level Indianapolis Center
08:16PM 38.9756 -80.5889 351° North 369 425 27,000  Level Indianapolis Center
08:17PM 39.0756 -80.6111 350° North 365 420 27,000  Level Indianapolis Center
08:18PM 39.1769 -80.6311 351° North 369 425 27,000  Level Indianapolis Center
08:19PM 39.2781 -80.6544 350° North 368 423 27,000  Level Indianapolis Center
08:20PM 39.3783 -80.6750 351° North 367 422 27,000  Level Indianapolis Center
08:21PM 39.4997 -80.7025 350° North 368 423 27,000  Level Indianapolis Center
08:22PM 39.5992 -80.7256 350° North 364 419 27,000  Level Indianapolis Center
08:23PM 39.6983 -80.7461 351° North 361 415 27,000  Level Indianapolis Center
08:24PM 39.7978 -80.7681 350° North 362 417 27,000  Level Indianapolis Center
08:25PM 39.8964 -80.7903 350° North 360 414 27,000 -720 Level Indianapolis Center
08:26PM 40.0031 -80.8128 351° North 362 417 25,600 -1,500 Descending Indianapolis Center
08:27PM 40.1069 -80.8064 North 371 427 24,000 -840 Descending Indianapolis Center
08:28PM 40.1878 -80.8742 327° Northwest 346 398 24,000  Level Indianapolis Center
08:29PM 40.2611 -80.9511 321° Northwest 336 387 24,000  Level Indianapolis Center
08:30PM 40.3342 -81.0278 321° Northwest 335 386 24,000 -120 Level Indianapolis Center
08:31PM 40.4083 -81.1058 321° Northwest 335 386 23,800 -1,080 Descending Indianapolis Center
08:32PM 40.4828 -81.1817 322° Northwest 337 388 21,900 -2,040 Descending Indianapolis Center
08:34PM 40.5675 -81.2719 321° Northwest 333 383 19,700 -1,920 Descending Indianapolis Center
08:35PM 40.6356 -81.3428 322° Northwest 315 362 18,000 -1,740 Descending Indianapolis Center
08:36PM 40.7019 -81.4111 322° Northwest 303 349 16,200 -1,800 Descending Indianapolis Center
08:36PM 40.7578 -81.4744 319° Northwest 298 343 14,600 -1,680 Descending Cleveland Center
08:37PM 40.7892 -81.5033 325° Northwest 295 339 13,800 -1,680 Descending Cleveland Center
08:37PM 40.8131 -81.5358 314° West 282 325 13,100 -1,740 Descending Cleveland Center
08:38PM 40.8764 -81.6008 322° Northwest 283 326 11,500 -1,740 Descending Cleveland Center
08:39PM 40.9242 -81.6469 324° Northwest 286 329 10,200 -1,500 Descending Cleveland Center
08:39PM 40.9378 -81.6661 313° West 288 331 10,000 -900 Descending Cleveland Center
08:40PM 40.9969 -81.6686 358° North 285 328 9,300 -1,020 Descending Cleveland Center
08:40PM 41.0089 -81.6692 358° North 276 318 9,100 -300 Descending Cleveland Center
08:41PM 41.0725 -81.6614 North 272 313 9,000 -300 Descending Cleveland Center
08:41PM 41.0958 -81.6606 North 276 318 8,800 -1,380 Descending Cleveland Center
08:42PM 41.1506 -81.6556 North 276 318 7,600 -1,740 Descending Cleveland Center
08:42PM 41.1719 -81.6533 North 276 318 7,100 -1,620 Descending Cleveland Center
08:43PM 41.2264 -81.6514 North 273 314 6,000 -1,620 Descending Cleveland Center
08:43PM 41.2478 -81.6517 359° North 271 312 5,500 -1,800 Descending Cleveland Center
08:44PM 41.3144 -81.6567 357° North 259 298 4,000 -1,380 Descending Cleveland Center
08:45PM 41.3731 -81.6828 342° North 249 287 3,000 -1,080 Descending Cleveland Center
08:45PM 41.3731 -81.6819 90° East 253 291 3,000  Level Cleveland Center
08:46PM 41.4250 -81.7106 338° Northwest 172 198 3,000  Level Cleveland Center
08:46PM 41.4239 -81.7097 151° Southeast 217 250 3,000 -420 Level Cleveland Center
08:47PM 41.4356 -81.7494 291° West 150 173 2,600 -540 Descending Cleveland Center
08:48PM 41.4347 -81.7875 268° West 96 110 2,000 -600 Descending Cleveland Center
08:48PM 41.4358 -81.7864 37° Northeast 114 131 2,000 -420 Level Cleveland Center
08:49PM 41.4294 -81.8231 257° West 98 113 1,600 -420 Descending Cleveland Center
08:49PM 41.4303 -81.8217 51° Northeast 102 117 1,600 -780 Level Cleveland Center
08:50PM 41.4142 -81.8506 233° Southwest 99 114 800 -840 Descending Cleveland Center